ISZ weather

CLOSED Cincinnati Blue Ash Airport
Cincinnati, Ohio, United States

Public forecast

Using degrees Fahrenheit for public forecast. Weather courtesy of forecast.io.

Closest aviation weather report (METAR) to Cincinnati Blue Ash Airport

Closest report is Cincinnati Municipal Airport Lunken Field, 8.7 nm (16.1 km) S. Retrieved 2019/10/19 13:42 UTC (0 seconds ago):

KLUK 191342Z 00000KT 6SM BR FEW002 06/06 A3000 RMK AO2 T00610061

Closest aviation forecast (TAF) to Cincinnati Blue Ash Airport

Closest forecast is Cincinnati Municipal Airport Lunken Field, 8.7 nm (16.1 km) S. Retrieved 2019/10/19 12:36 UTC (51 minutes ago):

TAF KLUK 191135Z 1912/2012 00000KT 5SM BR FEW002 FM191300 13003KT P6SM SCT250 FM191500 16005KT P6SM BKN250 FM200000 00000KT P6SM SCT250 FM200400 00000KT P6SM SCT050 SCT120 FM200800 00000KT 5SM BR SCT050 BKN100